Time;durP1;ratioP1;P1;durP2;ratioP2;P2;SDS_P1;SDS_P2;PMS_P1;PMS_P2;Temp;Humidity;BMP_temperature;BMP_pressure;BME280_temperature;BME280_humidity;BME280_pressure;Samples;Min_cycle;Max_cycle;Signal;HPM_P1;HPM_P2
2021/06/13 00:01:58;;;;;;;3.42;1.88;;;20.00;81.90;;;;;;5070147;28;20094;-65
2021/06/13 00:04:24;;;;;;;6.28;1.88;;;19.90;82.10;;;;;;5052362;28;20480;-65
2021/06/13 00:06:53;;;;;;;6.28;1.98;;;19.80;82.10;;;;;;5051750;28;20091;-65
2021/06/13 00:09:22;;;;;;;5.82;1.90;;;19.80;83.40;;;;;;5070334;28;20021;-65
2021/06/13 00:11:49;;;;;;;6.35;2.92;;;19.80;84.00;;;;;;5069996;28;20062;-64
2021/06/13 00:14:16;;;;;;;2.33;1.83;;;19.70;83.40;;;;;;5052221;28;20025;-65
2021/06/13 00:16:41;;;;;;;5.65;1.80;;;19.70;84.70;;;;;;5069554;28;20025;-65
2021/06/13 00:19:07;;;;;;;5.22;2.20;;;19.70;85.20;;;;;;5070111;28;20043;-65
2021/06/13 00:21:33;;;;;;;5.63;1.75;;;19.70;85.50;;;;;;5069349;28;20473;-65
2021/06/13 00:23:59;;;;;;;4.18;1.40;;;19.80;85.10;;;;;;5051942;28;20062;-65
2021/06/13 00:26:24;;;;;;;7.85;1.90;;;19.70;85.20;;;;;;5053680;28;20029;-64
2021/06/13 00:28:51;;;;;;;4.25;2.05;;;19.50;85.00;;;;;;5055142;28;20028;-64
2021/06/13 00:31:16;;;;;;;7.38;1.63;;;19.60;84.90;;;;;;5055628;28;20112;-65
2021/06/13 00:33:42;;;;;;;5.07;2.25;;;19.60;85.50;;;;;;5072959;28;20025;-65
2021/06/13 00:36:08;;;;;;;3.58;1.67;;;19.60;85.50;;;;;;5055578;28;20021;-65
2021/06/13 00:38:33;;;;;;;5.70;1.60;;;19.50;85.30;;;;;;5054912;28;20029;-64
2021/06/13 00:40:59;;;;;;;3.28;1.67;;;19.50;85.20;;;;;;5055450;28;20458;-64
2021/06/13 00:43:25;;;;;;;7.72;2.30;;;19.40;85.20;;;;;;5054975;28;20032;-64
2021/06/13 00:45:51;;;;;;;10.27;2.45;;;19.30;85.90;;;;;;5072796;28;20108;-64
2021/06/13 00:48:16;;;;;;;6.03;2.38;;;19.40;86.50;;;;;;5073324;28;20025;-65
2021/06/13 00:50:49;;;;;;;4.90;1.90;;;19.30;85.80;;;;;;5054799;28;20055;-64
2021/06/13 00:53:16;;;;;;;3.95;1.75;;;19.20;86.80;;;;;;5073518;28;20087;-64
2021/06/13 00:55:42;;;;;;;8.15;1.88;;;19.40;86.70;;;;;;5055002;28;20116;-65
2021/06/13 00:58:09;;;;;;;2.88;1.83;;;19.40;86.50;;;;;;5055196;28;20055;-65
2021/06/13 01:00:36;;;;;;;5.55;1.65;;;19.40;86.10;;;;;;5054464;28;20040;-65
2021/06/13 01:03:02;;;;;;;7.07;2.10;;;19.30;85.50;;;;;;5073179;28;20037;-65
2021/06/13 01:05:29;;;;;;;6.35;2.40;;;19.30;85.70;;;;;;5073005;28;20032;-65
2021/06/13 01:08:38;;;;;;;7.05;2.13;;;19.30;86.10;;;;;;5073242;28;20043;-64
2021/06/13 01:11:42;;;;;;;2.70;2.13;;;19.30;86.50;;;;;;5041814;28;20031;-64
2021/06/13 01:14:08;;;;;;;6.13;2.25;;;19.20;86.20;;;;;;5072706;28;20032;-65
2021/06/13 01:16:36;;;;;;;6.13;1.95;;;19.10;86.90;;;;;;5054393;28;20047;-66
2021/06/13 01:19:06;;;;;;;11.55;1.90;;;19.10;87.30;;;;;;5054831;28;20032;-65
2021/06/13 01:21:41;;;;;;;4.07;1.85;;;19.10;87.60;;;;;;5072218;28;20040;-79
2021/06/13 01:24:51;;;;;;;4.70;1.80;;;19.20;87.40;;;;;;5072152;28;20036;-65
2021/06/13 01:27:37;;;;;;;6.40;2.25;;;19.10;86.90;;;;;;5031660;28;20035;-65
2021/06/13 01:30:07;;;;;;;5.90;2.00;;;19.10;87.10;;;;;;5072933;28;20024;-65
2021/06/13 01:32:34;;;;;;;2.95;1.85;;;19.10;87.60;;;;;;5054152;28;20432;-75
2021/06/13 01:35:05;;;;;;;4.68;1.83;;;19.00;88.40;;;;;;5054389;28;20136;-65
2021/06/13 01:37:36;;;;;;;4.00;2.00;;;18.90;89.30;;;;;;5071202;28;20104;-65
2021/06/13 01:40:15;;;;;;;3.25;1.55;;;18.90;89.70;;;;;;5054108;28;20028;-65
2021/06/13 01:42:46;;;;;;;7.55;2.00;;;18.90;89.60;;;;;;5053479;28;20111;-66
2021/06/13 01:45:14;;;;;;;4.72;1.88;;;18.90;89.60;;;;;;5071843;28;20032;-65
2021/06/13 01:47:40;;;;;;;7.40;1.98;;;18.80;89.60;;;;;;5052799;28;20043;-64
2021/06/13 01:50:07;;;;;;;5.30;2.28;;;18.90;90.00;;;;;;5071914;28;20036;-65
2021/06/13 01:52:40;;;;;;;3.70;2.17;;;18.90;90.00;;;;;;5050370;28;20148;-65
2021/06/13 01:55:10;;;;;;;5.32;1.85;;;18.90;90.10;;;;;;5051867;28;20029;-65
2021/06/13 01:57:39;;;;;;;4.10;1.90;;;18.80;90.10;;;;;;5051252;28;20146;-66
2021/06/13 02:00:10;;;;;;;4.72;1.88;;;18.70;90.60;;;;;;5051483;28;20029;-65
2021/06/13 02:02:37;;;;;;;4.90;1.75;;;18.70;90.70;;;;;;5051380;28;20114;-65
2021/06/13 02:05:05;;;;;;;4.88;1.90;;;18.70;90.90;;;;;;5050667;28;20029;-64
2021/06/13 02:07:35;;;;;;;5.32;2.10;;;18.80;90.90;;;;;;5050074;28;20468;-65
2021/06/13 02:10:04;;;;;;;5.93;2.10;;;18.70;90.80;;;;;;5051410;28;20033;-65
2021/06/13 02:12:30;;;;;;;6.95;2.40;;;18.60;90.70;;;;;;5051233;28;20482;-64
2021/06/13 02:14:57;;;;;;;4.93;1.88;;;18.50;91.40;;;;;;5050801;28;20029;-68
2021/06/13 02:17:23;;;;;;;3.70;2.72;;;18.50;91.60;;;;;;5049840;28;20414;-64
2021/06/13 02:19:49;;;;;;;3.35;1.55;;;18.50;91.90;;;;;;5048993;28;20046;-64
2021/06/13 02:22:19;;;;;;;6.55;1.80;;;18.50;91.70;;;;;;5051082;28;20425;-64
2021/06/13 02:24:45;;;;;;;19.70;2.30;;;18.50;91.60;;;;;;5049013;28;20064;-64
2021/06/13 02:27:15;;;;;;;6.32;1.80;;;18.40;91.30;;;;;;5049633;28;20053;-63
2021/06/13 02:29:43;;;;;;;4.07;1.55;;;18.30;91.90;;;;;;5050158;28;20017;-64
2021/06/13 02:32:11;;;;;;;5.03;1.98;;;18.40;91.90;;;;;;5049733;28;20025;-64
2021/06/13 02:34:37;;;;;;;7.35;1.85;;;18.30;91.70;;;;;;5050315;28;20029;-65
2021/06/13 02:37:06;;;;;;;4.38;2.13;;;18.40;91.50;;;;;;5051009;28;20025;-63
2021/06/13 02:39:32;;;;;;;4.47;1.73;;;18.30;91.30;;;;;;5050742;28;20021;-64
2021/06/13 02:41:58;;;;;;;9.52;2.20;;;18.30;91.30;;;;;;5044594;28;20037;-65
2021/06/13 02:44:24;;;;;;;7.35;2.33;;;18.20;91.60;;;;;;5042344;28;20163;-64
2021/06/13 02:46:50;;;;;;;4.95;2.40;;;18.20;92.00;;;;;;5050417;28;20029;-64
2021/06/13 02:49:16;;;;;;;4.05;1.70;;;18.20;92.30;;;;;;5049004;28;20032;-64
2021/06/13 02:51:56;;;;;;;7.03;2.33;;;18.10;92.50;;;;;;5050164;28;20052;-63
2021/06/13 02:54:24;;;;;;;4.50;2.08;;;18.20;92.40;;;;;;5070477;28;20330;-64
2021/06/13 02:56:59;;;;;;;2.30;1.70;;;18.20;92.40;;;;;;5070337;28;20035;-64
2021/06/13 02:59:38;;;;;;;6.05;1.73;;;18.20;92.30;;;;;;5052496;28;20024;-64
2021/06/13 03:02:07;;;;;;;3.75;1.92;;;18.10;92.20;;;;;;5052662;28;20120;-64
2021/06/13 03:04:34;;;;;;;5.35;1.98;;;18.00;92.30;;;;;;5070688;28;20044;-64
2021/06/13 03:07:01;;;;;;;5.25;2.28;;;18.00;93.00;;;;;;5051947;28;20020;-64
2021/06/13 03:09:29;;;;;;;3.53;1.73;;;18.00;92.60;;;;;;5070482;28;20104;-64
2021/06/13 03:11:56;;;;;;;4.25;1.92;;;17.90;91.80;;;;;;5051908;28;20082;-64
2021/06/13 03:14:26;;;;;;;4.93;2.65;;;17.90;91.80;;;;;;5052389;28;20059;-64
2021/06/13 03:16:53;;;;;;;6.05;2.90;;;17.90;92.20;;;;;;5051739;28;20052;-64
2021/06/13 03:19:19;;;;;;;3.42;2.03;;;18.00;92.50;;;;;;5052393;28;20032;-64
2021/06/13 03:21:47;;;;;;;3.70;1.60;;;18.10;92.30;;;;;;5051554;28;20032;-64
2021/06/13 03:24:13;;;;;;;3.40;2.00;;;18.10;92.40;;;;;;5070393;28;20473;-64
2021/06/13 03:26:40;;;;;;;6.03;2.50;;;18.10;92.20;;;;;;5051893;28;20016;-79
2021/06/13 03:29:08;;;;;;;6.15;2.00;;;17.90;92.60;;;;;;5052231;28;20108;-63
2021/06/13 03:31:35;;;;;;;5.38;2.20;;;17.90;92.60;;;;;;5069699;28;20450;-64
2021/06/13 03:34:01;;;;;;;5.13;1.77;;;17.90;92.50;;;;;;5051272;28;20461;-64
2021/06/13 03:36:29;;;;;;;5.47;1.90;;;17.90;92.60;;;;;;5052222;28;20481;-65
2021/06/13 03:38:55;;;;;;;3.85;2.35;;;17.90;92.60;;;;;;5069660;28;20025;-63
2021/06/13 03:41:22;;;;;;;4.35;1.90;;;17.90;92.50;;;;;;5069830;28;20055;-63
2021/06/13 03:43:53;;;;;;;7.93;2.72;;;17.80;92.40;;;;;;5051353;28;20028;-64
2021/06/13 03:46:19;;;;;;;8.03;1.77;;;17.60;93.20;;;;;;5052071;28;20024;-63
2021/06/13 03:48:49;;;;;;;7.70;2.30;;;17.70;92.90;;;;;;5051612;28;20266;-64
2021/06/13 03:51:16;;;;;;;3.55;2.20;;;17.80;92.80;;;;;;5070071;28;20071;-65
2021/06/13 03:53:47;;;;;;;3.17;1.88;;;17.80;92.10;;;;;;5051430;28;20067;-67
2021/06/13 03:56:26;;;;;;;8.02;2.10;;;17.80;92.50;;;;;;5052278;28;20052;-64
2021/06/13 03:58:54;;;;;;;5.40;1.77;;;17.90;92.50;;;;;;5069769;28;20025;-64
2021/06/13 04:01:21;;;;;;;2.85;1.90;;;17.90;92.50;;;;;;5071883;28;20074;-64
2021/06/13 04:03:55;;;;;;;3.10;2.00;;;17.90;92.40;;;;;;5073099;28;20528;-64
2021/06/13 04:06:22;;;;;;;3.75;1.40;;;17.80;92.30;;;;;;5074078;28;20099;-63
2021/06/13 04:08:50;;;;;;;5.60;2.20;;;17.80;92.60;;;;;;5073584;28;20024;-64
2021/06/13 04:11:18;;;;;;;4.72;2.22;;;17.90;92.60;;;;;;5073726;28;20456;-64
2021/06/13 04:13:46;;;;;;;3.70;2.60;;;17.90;92.60;;;;;;5073234;28;20032;-65
2021/06/13 04:16:13;;;;;;;3.55;1.95;;;17.80;92.50;;;;;;5055814;28;20128;-64
2021/06/13 04:18:42;;;;;;;3.20;1.92;;;17.80;92.40;;;;;;5073435;28;20035;-64
2021/06/13 04:21:10;;;;;;;4.97;2.88;;;17.80;92.50;;;;;;5073314;28;20088;-65
2021/06/13 04:23:38;;;;;;;5.90;2.15;;;17.70;92.60;;;;;;5055401;28;20456;-64
2021/06/13 04:26:04;;;;;;;6.05;2.50;;;17.80;92.70;;;;;;5073307;28;20070;-64
2021/06/13 04:28:30;;;;;;;5.35;2.25;;;17.80;92.50;;;;;;5073529;28;20025;-65
2021/06/13 04:31:11;;;;;;;4.07;1.85;;;17.80;92.40;;;;;;5072904;28;20155;-65
2021/06/13 04:33:39;;;;;;;4.50;1.70;;;17.80;92.70;;;;;;5073428;28;20035;-65
2021/06/13 04:36:05;;;;;;;7.43;1.83;;;17.80;92.80;;;;;;5072988;28;20028;-65
2021/06/13 04:38:30;;;;;;;5.22;2.10;;;17.90;92.80;;;;;;5055283;28;20029;-65
2021/06/13 04:40:56;;;;;;;6.47;2.15;;;17.80;92.60;;;;;;5072677;28;20361;-65
2021/06/13 04:43:22;;;;;;;10.15;2.53;;;17.70;92.70;;;;;;5055057;28;20039;-66
2021/06/13 04:45:47;;;;;;;8.57;1.88;;;17.70;92.90;;;;;;5054759;28;20031;-64
2021/06/13 04:48:14;;;;;;;5.35;2.05;;;17.50;92.80;;;;;;5054964;28;20462;-64
2021/06/13 04:50:43;;;;;;;5.18;2.00;;;17.50;93.20;;;;;;5054711;28;20432;-64
2021/06/13 04:53:48;;;;;;;4.03;1.98;;;17.60;93.30;;;;;;5054834;28;20094;-65
2021/06/13 04:56:44;;;;;;;3.13;1.67;;;17.50;93.30;;;;;;5041610;28;20082;-64
2021/06/13 04:59:10;;;;;;;5.78;2.42;;;17.60;93.10;;;;;;5054924;28;20186;-66
2021/06/13 05:01:39;;;;;;;4.13;2.00;;;17.60;93.20;;;;;;5054964;28;20025;-65
2021/06/13 05:04:04;;;;;;;8.15;2.92;;;17.60;93.00;;;;;;5054321;28;20217;-65
2021/06/13 05:06:30;;;;;;;5.97;2.28;;;17.70;93.00;;;;;;5072495;28;20068;-64
2021/06/13 05:08:56;;;;;;;6.53;2.90;;;17.70;92.90;;;;;;5054105;28;20327;-65
2021/06/13 05:11:22;;;;;;;4.60;2.22;;;17.70;92.90;;;;;;5054408;28;20052;-65
2021/06/13 05:13:47;;;;;;;5.30;2.15;;;17.70;93.20;;;;;;5071852;28;20485;-65
2021/06/13 05:16:13;;;;;;;7.90;2.15;;;17.80;92.90;;;;;;5054385;28;20072;-64
2021/06/13 05:18:39;;;;;;;4.25;1.95;;;17.80;92.70;;;;;;5072189;28;20028;-65
2021/06/13 05:21:05;;;;;;;5.55;2.13;;;17.90;92.40;;;;;;5072122;28;20033;-64
2021/06/13 05:23:30;;;;;;;5.25;2.13;;;17.90;92.70;;;;;;5054245;28;20140;-65
2021/06/13 05:25:57;;;;;;;4.38;2.72;;;17.90;92.70;;;;;;5053717;28;20112;-64
2021/06/13 05:28:23;;;;;;;7.30;2.15;;;17.80;92.50;;;;;;5072049;28;20031;-64
2021/06/13 05:30:50;;;;;;;5.13;1.98;;;17.80;92.50;;;;;;5071252;28;20028;-64
2021/06/13 05:33:16;;;;;;;7.57;2.58;;;17.80;92.60;;;;;;5054113;28;20036;-65
2021/06/13 05:35:42;;;;;;;4.53;2.22;;;17.80;92.70;;;;;;5053954;28;20043;-65
2021/06/13 05:38:09;;;;;;;8.43;2.42;;;17.90;92.80;;;;;;5071561;28;20146;-64
2021/06/13 05:40:36;;;;;;;4.22;2.63;;;17.90;92.40;;;;;;5072154;28;20021;-64
2021/06/13 05:43:01;;;;;;;12.48;2.05;;;17.90;92.50;;;;;;5071147;28;20039;-64
2021/06/13 05:45:30;;;;;;;7.90;3.00;;;17.90;92.50;;;;;;5053871;28;20033;-65
2021/06/13 05:47:56;;;;;;;4.25;2.00;;;17.90;92.60;;;;;;5070850;28;20035;-64
2021/06/13 05:50:23;;;;;;;7.13;2.42;;;17.90;92.50;;;;;;5053611;28;20024;-64
2021/06/13 05:52:49;;;;;;;4.35;2.40;;;17.90;92.70;;;;;;5052483;28;20056;-68
2021/06/13 05:55:15;;;;;;;4.13;2.17;;;18.00;92.50;;;;;;5071477;28;20399;-64
2021/06/13 05:57:41;;;;;;;10.05;1.92;;;18.00;92.30;;;;;;5070877;28;20034;-64
2021/06/13 06:00:25;;;;;;;8.27;3.08;;;18.10;92.40;;;;;;5071153;28;20126;-64
2021/06/13 06:02:51;;;;;;;10.77;2.80;;;18.00;92.50;;;;;;5053024;28;20040;-65
2021/06/13 06:05:19;;;;;;;4.50;2.05;;;17.90;92.10;;;;;;5071763;28;20043;-64
2021/06/13 06:07:45;;;;;;;5.80;1.80;;;18.00;92.30;;;;;;5053303;28;20108;-65
2021/06/13 06:10:12;;;;;;;5.68;2.15;;;18.20;92.50;;;;;;5052815;28;20304;-65
2021/06/13 06:12:39;;;;;;;7.82;2.55;;;18.10;92.00;;;;;;5053398;28;20060;-64
2021/06/13 06:15:07;;;;;;;8.82;2.85;;;18.20;92.00;;;;;;5070693;28;20039;-65
2021/06/13 06:17:34;;;;;;;6.85;2.50;;;18.30;91.80;;;;;;5053229;28;20025;-66
2021/06/13 06:20:00;;;;;;;7.70;2.30;;;18.40;91.60;;;;;;5070769;28;20111;-66
2021/06/13 06:22:26;;;;;;;11.32;2.75;;;18.30;91.40;;;;;;5052698;28;20120;-66
2021/06/13 06:24:52;;;;;;;4.53;2.80;;;18.30;91.40;;;;;;5051868;28;20055;-66
2021/06/13 06:27:18;;;;;;;10.13;3.10;;;18.30;91.20;;;;;;5053096;28;20024;-64
2021/06/13 06:29:43;;;;;;;7.25;2.60;;;18.30;91.20;;;;;;5070815;28;20031;-65
2021/06/13 06:32:09;;;;;;;9.13;2.55;;;18.40;91.10;;;;;;5069941;28;20576;-65
2021/06/13 06:34:35;;;;;;;4.45;2.45;;;18.50;91.20;;;;;;5070853;28;20168;-66
2021/06/13 06:37:01;;;;;;;5.78;2.30;;;18.50;91.20;;;;;;5053113;28;20028;-66
2021/06/13 06:39:27;;;;;;;6.60;2.30;;;18.50;90.70;;;;;;5052886;28;20032;-66
2021/06/13 06:41:52;;;;;;;9.75;3.20;;;18.50;90.80;;;;;;5052088;28;20024;-65
2021/06/13 06:44:18;;;;;;;12.55;2.47;;;18.50;90.60;;;;;;5051996;28;20490;-64
2021/06/13 06:46:44;;;;;;;8.18;2.88;;;18.50;90.60;;;;;;5052357;28;20046;-65
2021/06/13 06:49:10;;;;;;;7.90;2.60;;;18.60;90.40;;;;;;5069905;28;20024;-64
2021/06/13 06:51:36;;;;;;;5.95;2.22;;;18.60;90.20;;;;;;5052398;28;20037;-65
2021/06/13 06:54:02;;;;;;;6.07;2.55;;;18.60;90.20;;;;;;5051833;28;20063;-65
2021/06/13 06:56:29;;;;;;;7.60;2.13;;;18.70;90.10;;;;;;5071097;28;20029;-65
2021/06/13 06:58:56;;;;;;;3.20;2.38;;;18.70;90.20;;;;;;5051882;28;20122;-67
2021/06/13 07:01:22;;;;;;;9.45;2.50;;;18.60;90.20;;;;;;5052438;28;20105;-65
2021/06/13 07:03:48;;;;;;;9.43;2.63;;;18.80;90.50;;;;;;5052381;28;20069;-64
2021/06/13 07:06:14;;;;;;;8.57;2.75;;;18.90;90.30;;;;;;5069681;28;20028;-65
2021/06/13 07:08:40;;;;;;;6.40;2.30;;;18.80;90.30;;;;;;5052199;28;20044;-65
2021/06/13 07:11:06;;;;;;;7.20;2.47;;;18.80;90.30;;;;;;5069626;28;20025;-65
2021/06/13 07:13:33;;;;;;;6.15;2.42;;;18.80;89.80;;;;;;5070556;28;20037;-65
2021/06/13 07:15:59;;;;;;;9.63;2.88;;;18.90;90.00;;;;;;5070058;28;20025;-65
2021/06/13 07:18:26;;;;;;;11.18;2.67;;;18.90;89.60;;;;;;5052334;28;20028;-66
2021/06/13 07:20:53;;;;;;;5.43;2.13;;;19.00;89.40;;;;;;5070009;28;20090;-65
2021/06/13 07:23:18;;;;;;;5.40;2.83;;;19.00;89.50;;;;;;5051838;28;20039;-65
2021/06/13 07:25:44;;;;;;;5.43;2.50;;;19.20;89.50;;;;;;5069963;28;20025;-66
2021/06/13 07:28:10;;;;;;;10.07;2.63;;;19.20;89.20;;;;;;5051255;28;20093;-66
2021/06/13 07:30:36;;;;;;;5.50;2.00;;;19.30;89.10;;;;;;5051670;28;20157;-65
2021/06/13 07:33:03;;;;;;;5.53;2.85;;;19.40;88.90;;;;;;5069624;28;20032;-65
2021/06/13 07:35:31;;;;;;;6.65;2.30;;;19.40;88.60;;;;;;5054277;28;20063;-65
2021/06/13 07:38:00;;;;;;;6.63;2.10;;;19.40;88.00;;;;;;5074182;28;20361;-67
2021/06/13 07:40:26;;;;;;;5.65;2.40;;;19.40;88.00;;;;;;5074272;28;20082;-64
2021/06/13 07:42:51;;;;;;;7.30;2.80;;;19.50;88.00;;;;;;5073767;28;20099;-65
2021/06/13 07:45:17;;;;;;;7.88;3.45;;;19.60;87.40;;;;;;5055791;28;20043;-66
2021/06/13 07:47:43;;;;;;;5.45;2.50;;;19.50;87.70;;;;;;5074663;28;20028;-66
2021/06/13 07:50:11;;;;;;;7.78;2.65;;;19.50;87.20;;;;;;5055833;28;20028;-67
2021/06/13 07:52:37;;;;;;;10.55;2.63;;;19.60;87.40;;;;;;5074106;28;20041;-66
2021/06/13 07:55:05;;;;;;;7.93;2.92;;;19.40;87.10;;;;;;5055784;28;20035;-66
2021/06/13 07:57:31;;;;;;;4.97;2.30;;;19.50;86.40;;;;;;5055980;28;20580;-66
2021/06/13 07:59:57;;;;;;;7.30;2.50;;;19.50;86.10;;;;;;5055479;28;20187;-66
2021/06/13 08:02:23;;;;;;;7.15;3.20;;;19.60;85.30;;;;;;5055660;28;20021;-66
2021/06/13 08:04:59;;;;;;;10.93;2.72;;;19.60;85.50;;;;;;5055901;28;20028;-66
2021/06/13 08:07:25;;;;;;;9.55;2.50;;;19.50;85.50;;;;;;5055394;28;20039;-67
2021/06/13 08:09:50;;;;;;;8.55;3.03;;;19.40;87.30;;;;;;5073359;28;20028;-66
2021/06/13 08:12:17;;;;;;;7.35;3.00;;;19.60;88.40;;;;;;5055465;28;20047;-66
2021/06/13 08:14:42;;;;;;;7.70;2.65;;;19.90;87.10;;;;;;5056273;28;20029;-66
2021/06/13 08:17:08;;;;;;;7.20;3.05;;;20.30;86.90;;;;;;5055327;28;20451;-66
2021/06/13 08:19:33;;;;;;;12.20;2.88;;;20.30;84.80;;;;;;5074058;28;20427;-65
2021/06/13 08:21:59;;;;;;;13.55;3.42;;;20.10;85.50;;;;;;5055058;28;20124;-66
2021/06/13 08:24:25;;;;;;;6.78;2.40;;;20.30;85.50;;;;;;5045938;28;20048;-66
2021/06/13 08:26:51;;;;;;;11.95;2.83;;;20.40;85.30;;;;;;5073579;28;20029;-73
2021/06/13 08:29:16;;;;;;;5.45;1.60;;;20.80;90.30;;;;;;5072129;28;20417;-57
2021/06/13 08:31:42;;;;;;;5.47;2.40;;;21.40;93.00;;;;;;5072896;28;20063;-51
2021/06/13 08:34:08;;;;;;;5.78;1.85;;;22.00;86.60;;;;;;5053655;28;20462;-50
2021/06/13 08:36:33;;;;;;;7.53;2.28;;;22.00;90.40;;;;;;5055177;28;20127;-51
2021/06/13 08:39:00;;;;;;;7.82;2.45;;;22.30;88.50;;;;;;5054682;28;20085;-59
2021/06/13 08:41:25;;;;;;;4.95;2.03;;;22.80;91.00;;;;;;5053947;28;20032;-51
2021/06/13 08:43:52;;;;;;;4.15;2.05;;;23.20;90.70;;;;;;5053998;28;20473;-52
2021/06/13 08:46:19;;;;;;;7.65;2.13;;;23.50;90.80;;;;;;5053139;28;20635;-50
2021/06/13 08:48:47;;;;;;;8.70;3.05;;;23.40;84.20;;;;;;5072884;28;20039;-51
2021/06/13 08:51:14;;;;;;;7.80;2.40;;;23.50;84.20;;;;;;5065218;28;20504;-51
2021/06/13 08:53:44;;;;;;;6.97;2.53;;;23.40;77.60;;;;;;5062738;28;20064;-51
2021/06/13 08:56:11;;;;;;;5.27;2.47;;;23.70;80.20;;;;;;5044234;28;20409;-53
2021/06/13 08:58:37;;;;;;;8.43;2.95;;;23.90;77.40;;;;;;5056450;28;20420;-51
2021/06/13 09:01:09;;;;;;;6.40;2.55;;;23.80;77.30;;;;;;5033325;28;20025;-58
2021/06/13 09:03:35;;;;;;;5.38;2.30;;;23.70;74.70;;;;;;5052452;28;20037;-50
2021/06/13 09:06:01;;;;;;;6.65;2.88;;;23.70;71.60;;;;;;5051819;28;20055;-59
2021/06/13 09:08:38;;;;;;;5.85;1.92;;;23.50;76.50;;;;;;5039829;28;20533;-50
2021/06/13 09:11:06;;;;;;;4.85;2.28;;;23.80;73.10;;;;;;5056992;28;20036;-52
2021/06/13 09:13:34;;;;;;;8.10;2.40;;;24.00;75.40;;;;;;5038193;28;20033;-50
2021/06/13 09:16:02;;;;;;;8.07;2.55;;;24.20;73.80;;;;;;5051094;28;20363;-58
2021/06/13 09:18:29;;;;;;;12.55;2.10;;;24.10;70.70;;;;;;5033566;28;20025;-49
2021/06/13 09:20:57;;;;;;;5.90;1.98;;;24.10;70.20;;;;;;5051970;28;20086;-50
2021/06/13 09:23:23;;;;;;;6.07;2.42;;;24.30;65.90;;;;;;5032350;28;20247;-51
2021/06/13 09:26:00;;;;;;;6.32;2.88;;;24.30;68.70;;;;;;5033806;28;20473;-51
2021/06/13 09:28:28;;;;;;;6.07;2.35;;;24.40;70.20;;;;;;5051296;28;20144;-51
2021/06/13 09:30:54;;;;;;;8.20;2.03;;;24.60;70.00;;;;;;5052027;28;20025;-50
2021/06/13 09:33:21;;;;;;;7.20;2.38;;;24.60;67.60;;;;;;5032504;28;20390;-50
2021/06/13 09:35:49;;;;;;;5.75;2.78;;;24.50;68.80;;;;;;5038885;28;20028;-49
2021/06/13 09:38:28;;;;;;;4.75;2.25;;;24.60;65.70;;;;;;5062826;28;20020;-50
2021/06/13 09:41:09;;;;;;;5.88;2.50;;;24.60;66.20;;;;;;5042678;28;20084;-50
2021/06/13 09:43:38;;;;;;;;;;;24.50;66.00;;;;;;5050916;28;20048;-49
2021/06/13 09:46:07;;;;;;;5.63;2.28;;;24.40;66.60;;;;;;5052866;28;19939;-53
2021/06/13 09:48:38;;;;;;;8.55;2.28;;;24.50;67.40;;;;;;5060897;28;20343;-49
2021/06/13 09:51:07;;;;;;;6.32;2.00;;;24.90;68.80;;;;;;5039815;28;20060;-49
2021/06/13 09:53:45;;;;;;;4.50;2.50;;;25.00;67.80;;;;;;5058479;28;20063;-50
2021/06/13 09:56:32;;;;;;;7.43;2.30;;;25.20;67.50;;;;;;5053444;28;20039;-49
2021/06/13 09:59:05;;;;;;;5.47;2.00;;;25.20;64.50;;;;;;5060869;28;20028;-48
2021/06/13 10:01:34;;;;;;;7.45;2.65;;;25.30;66.20;;;;;;5042030;28;20029;-51
2021/06/13 10:04:00;;;;;;;9.32;2.08;;;25.40;67.80;;;;;;5058643;28;20371;-48
2021/06/13 10:06:36;;;;;;;4.47;2.00;;;25.70;66.20;;;;;;5039818;28;20033;-48
2021/06/13 10:09:04;;;;;;;7.07;2.28;;;25.80;64.90;;;;;;5032378;28;20078;-52
2021/06/13 10:11:30;;;;;;;4.10;2.25;;;26.00;65.40;;;;;;5070052;28;20032;-47
2021/06/13 10:14:00;;;;;;;7.90;2.40;;;26.30;64.80;;;;;;5070051;28;20131;-49
2021/06/13 10:16:27;;;;;;;6.77;3.03;;;26.40;62.30;;;;;;5069074;28;20135;-49
2021/06/13 10:19:23;;;;;;;4.05;2.22;;;26.60;62.90;;;;;;5122809;27;20200;-50
2021/06/13 10:21:57;;;;;;;7.00;2.72;;;26.60;63.00;;;;;;5078634;28;20043;-50
2021/06/13 10:24:28;;;;;;;4.95;2.45;;;26.70;62.40;;;;;;5106809;28;20032;-50
2021/06/13 10:27:03;;;;;;;7.20;2.65;;;26.90;62.20;;;;;;5088513;28;20108;-50
2021/06/13 10:29:31;;;;;;;3.75;1.70;;;27.00;62.10;;;;;;5085053;28;20076;-50
2021/06/13 10:31:59;;;;;;;6.97;2.08;;;27.30;63.40;;;;;;5088895;28;20327;-49
2021/06/13 10:34:26;;;;;;;4.13;2.13;;;27.00;62.50;;;;;;5106187;28;20186;-49
2021/06/13 10:36:54;;;;;;;6.47;2.20;;;27.00;63.80;;;;;;5107195;28;20024;-50
2021/06/13 10:39:22;;;;;;;5.13;2.55;;;27.10;61.30;;;;;;5087527;28;20028;-51
2021/06/13 10:41:49;;;;;;;7.20;2.70;;;27.20;62.10;;;;;;5105730;28;20103;-50
2021/06/13 10:44:17;;;;;;;7.55;2.65;;;27.00;62.20;;;;;;5087671;28;20487;-51
2021/06/13 10:46:57;;;;;;;6.47;2.97;;;26.80;63.90;;;;;;5105944;28;20032;-52
2021/06/13 10:49:35;;;;;;;4.93;2.20;;;26.60;65.20;;;;;;5104195;28;20042;-51
2021/06/13 10:52:06;;;;;;;5.43;2.10;;;26.70;62.40;;;;;;5085990;28;20032;-50
2021/06/13 10:54:35;;;;;;;4.00;2.05;;;26.60;62.60;;;;;;5084924;28;20103;-50
2021/06/13 10:57:03;;;;;;;5.03;1.73;;;26.30;64.00;;;;;;5088562;28;20032;-52
2021/06/13 10:59:34;;;;;;;4.45;2.20;;;26.60;62.90;;;;;;5087629;28;20534;-49
2021/06/13 11:02:08;;;;;;;4.75;2.70;;;26.60;63.00;;;;;;5105599;28;20053;-50
2021/06/13 11:04:55;;;;;;;7.93;2.58;;;26.80;62.10;;;;;;5084686;28;20042;-51
2021/06/13 11:12:52;;;;;;;4.90;2.30;;;26.50;60.10;;;;;;5106735;28;20474;-50
2021/06/13 11:15:35;;;;;;;5.07;2.58;;;26.20;63.10;;;;;;5087374;28;20377;-49
2021/06/13 11:18:29;;;;;;;7.07;2.42;;;26.40;62.20;;;;;;5087526;28;20059;-50
2021/06/13 11:23:31;;;;;;;5.30;2.55;;;26.50;63.10;;;;;;5102937;28;20054;-50
2021/06/13 11:25:59;;;;;;;4.57;2.00;;;26.70;62.50;;;;;;5104265;28;20476;-50
2021/06/13 11:28:35;;;;;;;7.28;2.58;;;26.90;62.60;;;;;;5099049;28;20032;-51
2021/06/13 11:31:17;;;;;;;7.10;2.35;;;26.70;63.80;;;;;;5090997;28;20184;-50
2021/06/13 11:33:48;;;;;;;6.40;2.20;;;26.60;62.10;;;;;;5085685;28;20525;-51
2021/06/13 11:36:17;;;;;;;8.02;2.47;;;26.60;61.50;;;;;;5072045;28;20024;-49
2021/06/13 11:38:47;;;;;;;5.45;2.50;;;26.60;61.00;;;;;;5090511;28;20117;-51
2021/06/13 11:41:49;;;;;;;7.82;3.03;;;26.30;63.50;;;;;;5090450;28;20032;-51
2021/06/13 11:44:21;;;;;;;5.90;2.20;;;26.20;64.60;;;;;;5072213;28;20051;-52
2021/06/13 11:46:52;;;;;;;8.55;2.35;;;26.20;64.40;;;;;;5071225;28;20127;-50
2021/06/13 11:49:41;;;;;;;5.88;2.10;;;26.40;60.10;;;;;;5088500;28;20040;-51
2021/06/13 11:52:07;;;;;;;4.47;1.98;;;26.30;62.30;;;;;;5070928;28;20025;-53
2021/06/13 11:54:40;;;;;;;7.72;3.00;;;26.60;61.10;;;;;;5089740;28;20032;-51
2021/06/13 11:57:27;;;;;;;6.80;2.40;;;26.60;61.50;;;;;;5089208;28;20153;-59
2021/06/13 11:59:53;;;;;;;4.72;2.80;;;26.40;63.50;;;;;;5088963;28;20073;-50
2021/06/13 12:02:22;;;;;;;5.00;2.22;;;26.40;62.10;;;;;;5070444;28;20127;-49
2021/06/13 12:04:49;;;;;;;4.75;2.83;;;26.50;62.50;;;;;;5069615;28;20020;-50
2021/06/13 12:07:16;;;;;;;8.30;2.83;;;26.60;61.10;;;;;;5071711;28;20065;-50
2021/06/13 12:09:44;;;;;;;4.72;2.20;;;26.70;61.40;;;;;;5072139;28;20036;-51
2021/06/13 12:12:13;;;;;;;5.05;1.92;;;26.90;61.70;;;;;;5086858;28;20020;-50
2021/06/13 12:14:41;;;;;;;5.45;2.22;;;27.20;61.10;;;;;;5091199;28;20145;-50
2021/06/13 12:17:16;;;;;;;4.38;2.22;;;27.10;61.00;;;;;;5090688;28;20129;-58
2021/06/13 12:19:44;;;;;;;7.35;3.00;;;27.30;61.90;;;;;;5086274;28;20025;-50
2021/06/13 12:22:20;;;;;;;6.65;2.63;;;26.90;62.50;;;;;;5071438;28;20116;-51
2021/06/13 12:27:22;;;;;;;9.93;2.70;;;27.20;61.00;;;;;;5086382;28;20146;-50
2021/06/13 12:29:49;;;;;;;11.32;3.10;;;27.30;61.00;;;;;;5072589;28;20496;-50
2021/06/13 12:32:16;;;;;;;5.95;2.50;;;27.40;60.60;;;;;;5090489;28;20410;-51
2021/06/13 12:34:43;;;;;;;6.68;2.53;;;27.00;61.40;;;;;;5089612;28;20032;-54
2021/06/13 12:37:22;;;;;;;5.60;2.17;;;27.30;62.00;;;;;;5070771;28;20087;-58
2021/06/13 12:40:00;;;;;;;8.35;2.72;;;27.50;63.40;;;;;;5072842;28;20458;-51
2021/06/13 12:42:28;;;;;;;3.55;1.92;;;27.30;60.60;;;;;;5088746;28;20047;-51
2021/06/13 12:45:10;;;;;;;7.78;2.70;;;27.20;60.90;;;;;;5089972;28;20032;-51
2021/06/13 12:47:38;;;;;;;3.42;2.00;;;27.50;61.20;;;;;;5089058;28;20441;-51
2021/06/13 12:50:06;;;;;;;3.85;2.40;;;27.60;61.50;;;;;;5071253;28;20028;-51
2021/06/13 12:52:31;;;;;;;6.45;2.42;;;27.60;60.10;;;;;;5066667;28;20491;-51
2021/06/13 12:55:00;;;;;;;4.35;2.08;;;27.70;60.20;;;;;;5070019;28;20110;-51
2021/06/13 12:57:26;;;;;;;5.97;2.60;;;27.70;60.40;;;;;;5087982;28;20283;-54
2021/06/13 12:59:53;;;;;;;3.45;1.95;;;27.70;61.00;;;;;;5088188;28;20020;-51
2021/06/13 13:02:19;;;;;;;5.00;1.85;;;27.90;59.30;;;;;;5087433;28;20170;-49
2021/06/13 13:04:51;;;;;;;10.93;2.47;;;28.00;59.70;;;;;;5070836;28;20020;-52
2021/06/13 13:07:28;;;;;;;3.60;2.88;;;28.00;60.10;;;;;;5089033;28;20089;-53